sensor_id;sensor_type;location;lat;lon;timestamp;P1;durP1;ratioP1;P2;durP2;ratioP2
78787;SDS011;68131;52.508;5.502;2023-06-26T00:00:12;4.00;;;2.95;;
78787;SDS011;68131;52.508;5.502;2023-06-26T00:02:41;4.78;;;3.58;;
78787;SDS011;68131;52.508;5.502;2023-06-26T00:05:11;4.50;;;3.70;;
78787;SDS011;68131;52.508;5.502;2023-06-26T00:07:40;3.90;;;3.33;;
78787;SDS011;68131;52.508;5.502;2023-06-26T00:10:09;4.68;;;3.83;;
78787;SDS011;68131;52.508;5.502;2023-06-26T00:12:44;4.60;;;3.65;;
78787;SDS011;68131;52.508;5.502;2023-06-26T00:15:13;6.13;;;4.28;;
78787;SDS011;68131;52.508;5.502;2023-06-26T00:17:44;4.70;;;3.60;;
78787;SDS011;68131;52.508;5.502;2023-06-26T00:22:45;6.30;;;4.45;;
78787;SDS011;68131;52.508;5.502;2023-06-26T00:25:16;4.22;;;3.45;;
78787;SDS011;68131;52.508;5.502;2023-06-26T00:27:48;4.07;;;3.38;;
78787;SDS011;68131;52.508;5.502;2023-06-26T00:30:17;5.70;;;4.15;;
78787;SDS011;68131;52.508;5.502;2023-06-26T00:32:46;4.15;;;3.72;;
78787;SDS011;68131;52.508;5.502;2023-06-26T00:35:16;5.72;;;3.83;;
78787;SDS011;68131;52.508;5.502;2023-06-26T00:37:46;5.82;;;3.50;;
78787;SDS011;68131;52.508;5.502;2023-06-26T00:40:15;4.68;;;4.18;;
78787;SDS011;68131;52.508;5.502;2023-06-26T00:42:47;4.88;;;3.45;;
78787;SDS011;68131;52.508;5.502;2023-06-26T00:45:17;6.35;;;4.28;;
78787;SDS011;68131;52.508;5.502;2023-06-26T00:47:46;5.10;;;4.00;;
78787;SDS011;68131;52.508;5.502;2023-06-26T00:50:19;4.25;;;3.75;;
78787;SDS011;68131;52.508;5.502;2023-06-26T00:52:48;6.65;;;4.38;;
78787;SDS011;68131;52.508;5.502;2023-06-26T00:55:20;4.88;;;3.67;;
78787;SDS011;68131;52.508;5.502;2023-06-26T00:57:52;7.20;;;4.40;;
78787;SDS011;68131;52.508;5.502;2023-06-26T01:00:21;7.00;;;4.30;;
78787;SDS011;68131;52.508;5.502;2023-06-26T01:02:50;7.18;;;4.68;;
78787;SDS011;68131;52.508;5.502;2023-06-26T01:05:21;4.72;;;3.97;;
78787;SDS011;68131;52.508;5.502;2023-06-26T01:07:55;4.82;;;3.92;;
78787;SDS011;68131;52.508;5.502;2023-06-26T01:10:27;4.32;;;3.80;;
78787;SDS011;68131;52.508;5.502;2023-06-26T01:12:59;4.55;;;4.13;;
78787;SDS011;68131;52.508;5.502;2023-06-26T01:15:28;6.57;;;4.20;;
78787;SDS011;68131;52.508;5.502;2023-06-26T01:17:58;4.10;;;3.70;;
78787;SDS011;68131;52.508;5.502;2023-06-26T01:20:29;4.95;;;3.70;;
78787;SDS011;68131;52.508;5.502;2023-06-26T01:23:03;5.63;;;3.70;;
78787;SDS011;68131;52.508;5.502;2023-06-26T01:25:44;6.03;;;3.90;;
78787;SDS011;68131;52.508;5.502;2023-06-26T01:28:34;5.47;;;3.90;;
78787;SDS011;68131;52.508;5.502;2023-06-26T01:31:08;3.50;;;2.92;;
78787;SDS011;68131;52.508;5.502;2023-06-26T01:33:38;4.75;;;3.45;;
78787;SDS011;68131;52.508;5.502;2023-06-26T01:36:09;4.88;;;3.10;;
78787;SDS011;68131;52.508;5.502;2023-06-26T01:38:39;3.95;;;3.17;;
78787;SDS011;68131;52.508;5.502;2023-06-26T01:41:08;4.35;;;3.25;;
78787;SDS011;68131;52.508;5.502;2023-06-26T01:43:43;4.18;;;2.78;;
78787;SDS011;68131;52.508;5.502;2023-06-26T01:46:23;2.67;;;2.15;;
78787;SDS011;68131;52.508;5.502;2023-06-26T01:48:59;4.60;;;2.13;;
78787;SDS011;68131;52.508;5.502;2023-06-26T01:51:35;3.30;;;2.33;;
78787;SDS011;68131;52.508;5.502;2023-06-26T01:54:11;2.38;;;1.70;;
78787;SDS011;68131;52.508;5.502;2023-06-26T01:56:45;2.80;;;2.05;;
78787;SDS011;68131;52.508;5.502;2023-06-26T01:59:20;4.30;;;2.13;;
78787;SDS011;68131;52.508;5.502;2023-06-26T02:01:56;2.40;;;2.00;;
78787;SDS011;68131;52.508;5.502;2023-06-26T02:04:29;3.75;;;2.40;;
78787;SDS011;68131;52.508;5.502;2023-06-26T02:06:58;2.20;;;1.80;;
78787;SDS011;68131;52.508;5.502;2023-06-26T02:09:29;2.72;;;1.88;;
78787;SDS011;68131;52.508;5.502;2023-06-26T02:11:58;5.05;;;1.95;;
78787;SDS011;68131;52.508;5.502;2023-06-26T02:14:30;3.15;;;1.70;;
78787;SDS011;68131;52.508;5.502;2023-06-26T02:16:59;5.82;;;2.85;;
78787;SDS011;68131;52.508;5.502;2023-06-26T02:19:29;3.10;;;1.98;;
78787;SDS011;68131;52.508;5.502;2023-06-26T02:21:58;3.70;;;1.95;;
78787;SDS011;68131;52.508;5.502;2023-06-26T02:24:27;3.17;;;1.92;;
78787;SDS011;68131;52.508;5.502;2023-06-26T02:26:59;3.17;;;1.80;;
78787;SDS011;68131;52.508;5.502;2023-06-26T02:29:34;3.15;;;2.05;;
78787;SDS011;68131;52.508;5.502;2023-06-26T02:32:07;2.70;;;1.95;;
78787;SDS011;68131;52.508;5.502;2023-06-26T02:34:38;2.65;;;2.30;;
78787;SDS011;68131;52.508;5.502;2023-06-26T02:37:07;2.33;;;1.73;;
78787;SDS011;68131;52.508;5.502;2023-06-26T02:39:38;3.17;;;2.05;;
78787;SDS011;68131;52.508;5.502;2023-06-26T02:42:12;2.10;;;1.70;;
78787;SDS011;68131;52.508;5.502;2023-06-26T02:44:44;5.47;;;1.80;;
78787;SDS011;68131;52.508;5.502;2023-06-26T02:47:14;2.75;;;1.73;;
78787;SDS011;68131;52.508;5.502;2023-06-26T02:49:44;2.17;;;1.50;;
78787;SDS011;68131;52.508;5.502;2023-06-26T02:52:13;3.10;;;1.83;;
78787;SDS011;68131;52.508;5.502;2023-06-26T02:54:42;3.22;;;1.70;;
78787;SDS011;68131;52.508;5.502;2023-06-26T02:57:12;5.32;;;2.05;;
78787;SDS011;68131;52.508;5.502;2023-06-26T02:59:45;4.15;;;3.08;;
78787;SDS011;68131;52.508;5.502;2023-06-26T03:02:14;4.80;;;2.47;;
78787;SDS011;68131;52.508;5.502;2023-06-26T03:04:45;7.40;;;1.90;;
78787;SDS011;68131;52.508;5.502;2023-06-26T03:07:15;4.65;;;2.22;;
78787;SDS011;68131;52.508;5.502;2023-06-26T03:09:45;2.25;;;1.85;;
78787;SDS011;68131;52.508;5.502;2023-06-26T03:12:14;3.45;;;2.42;;
78787;SDS011;68131;52.508;5.502;2023-06-26T03:14:48;5.10;;;2.28;;
78787;SDS011;68131;52.508;5.502;2023-06-26T03:17:17;4.38;;;1.88;;
78787;SDS011;68131;52.508;5.502;2023-06-26T03:19:50;3.33;;;2.08;;
78787;SDS011;68131;52.508;5.502;2023-06-26T03:22:27;3.97;;;1.92;;
78787;SDS011;68131;52.508;5.502;2023-06-26T03:24:57;8.02;;;1.95;;
78787;SDS011;68131;52.508;5.502;2023-06-26T03:27:26;5.20;;;1.65;;
78787;SDS011;68131;52.508;5.502;2023-06-26T03:29:58;3.00;;;1.83;;
78787;SDS011;68131;52.508;5.502;2023-06-26T03:32:30;4.43;;;2.03;;
78787;SDS011;68131;52.508;5.502;2023-06-26T03:34:59;2.35;;;1.70;;
78787;SDS011;68131;52.508;5.502;2023-06-26T03:37:29;4.60;;;1.88;;
78787;SDS011;68131;52.508;5.502;2023-06-26T03:39:59;5.50;;;2.60;;
78787;SDS011;68131;52.508;5.502;2023-06-26T03:42:30;4.20;;;1.88;;
78787;SDS011;68131;52.508;5.502;2023-06-26T03:45:02;4.93;;;1.70;;
78787;SDS011;68131;52.508;5.502;2023-06-26T03:47:33;4.10;;;1.80;;
78787;SDS011;68131;52.508;5.502;2023-06-26T03:50:02;7.72;;;2.20;;
78787;SDS011;68131;52.508;5.502;2023-06-26T03:52:32;3.67;;;1.75;;
78787;SDS011;68131;52.508;5.502;2023-06-26T03:55:01;4.20;;;1.83;;
78787;SDS011;68131;52.508;5.502;2023-06-26T03:57:31;4.10;;;1.83;;
78787;SDS011;68131;52.508;5.502;2023-06-26T04:00:03;3.65;;;2.00;;
78787;SDS011;68131;52.508;5.502;2023-06-26T04:05:13;2.33;;;1.55;;
78787;SDS011;68131;52.508;5.502;2023-06-26T04:07:45;2.28;;;1.50;;
78787;SDS011;68131;52.508;5.502;2023-06-26T04:10:20;3.08;;;2.25;;
78787;SDS011;68131;52.508;5.502;2023-06-26T04:12:49;3.00;;;1.50;;
78787;SDS011;68131;52.508;5.502;2023-06-26T04:15:24;4.15;;;1.60;;
78787;SDS011;68131;52.508;5.502;2023-06-26T04:17:53;3.67;;;2.33;;
78787;SDS011;68131;52.508;5.502;2023-06-26T04:20:24;8.98;;;1.90;;
78787;SDS011;68131;52.508;5.502;2023-06-26T04:22:56;2.65;;;1.13;;
78787;SDS011;68131;52.508;5.502;2023-06-26T04:25:25;2.20;;;1.55;;
78787;SDS011;68131;52.508;5.502;2023-06-26T04:27:57;1.90;;;1.60;;
78787;SDS011;68131;52.508;5.502;2023-06-26T04:30:29;2.25;;;1.25;;
78787;SDS011;68131;52.508;5.502;2023-06-26T04:32:58;2.03;;;1.30;;
78787;SDS011;68131;52.508;5.502;2023-06-26T04:35:29;1.98;;;1.20;;
78787;SDS011;68131;52.508;5.502;2023-06-26T04:38:04;2.67;;;1.20;;
78787;SDS011;68131;52.508;5.502;2023-06-26T04:40:35;1.70;;;0.82;;
78787;SDS011;68131;52.508;5.502;2023-06-26T04:43:04;1.85;;;1.20;;
78787;SDS011;68131;52.508;5.502;2023-06-26T04:45:38;2.10;;;1.40;;
78787;SDS011;68131;52.508;5.502;2023-06-26T04:48:07;1.15;;;0.80;;
78787;SDS011;68131;52.508;5.502;2023-06-26T04:50:37;2.45;;;1.13;;
78787;SDS011;68131;52.508;5.502;2023-06-26T04:53:08;0.70;;;0.70;;
78787;SDS011;68131;52.508;5.502;2023-06-26T04:55:37;1.83;;;0.65;;
78787;SDS011;68131;52.508;5.502;2023-06-26T04:58:07;1.42;;;1.05;;
78787;SDS011;68131;52.508;5.502;2023-06-26T05:00:41;1.83;;;0.93;;
78787;SDS011;68131;52.508;5.502;2023-06-26T05:03:11;2.35;;;0.90;;
78787;SDS011;68131;52.508;5.502;2023-06-26T05:05:40;1.27;;;0.80;;
78787;SDS011;68131;52.508;5.502;2023-06-26T05:08:13;2.60;;;1.20;;
78787;SDS011;68131;52.508;5.502;2023-06-26T05:10:42;4.03;;;0.93;;
78787;SDS011;68131;52.508;5.502;2023-06-26T05:13:12;2.28;;;0.65;;
78787;SDS011;68131;52.508;5.502;2023-06-26T05:15:46;0.77;;;0.55;;
78787;SDS011;68131;52.508;5.502;2023-06-26T05:18:15;1.27;;;0.68;;
78787;SDS011;68131;52.508;5.502;2023-06-26T05:20:44;1.00;;;0.70;;
78787;SDS011;68131;52.508;5.502;2023-06-26T05:23:14;1.70;;;0.70;;
78787;SDS011;68131;52.508;5.502;2023-06-26T05:25:45;1.10;;;0.70;;
78787;SDS011;68131;52.508;5.502;2023-06-26T05:28:16;1.80;;;0.90;;
78787;SDS011;68131;52.508;5.502;2023-06-26T05:30:48;1.60;;;0.68;;
78787;SDS011;68131;52.508;5.502;2023-06-26T05:33:18;1.02;;;0.68;;
78787;SDS011;68131;52.508;5.502;2023-06-26T05:35:50;2.05;;;0.80;;
78787;SDS011;68131;52.508;5.502;2023-06-26T05:38:21;1.35;;;0.88;;
78787;SDS011;68131;52.508;5.502;2023-06-26T05:40:51;2.17;;;1.15;;
78787;SDS011;68131;52.508;5.502;2023-06-26T05:43:21;1.42;;;0.93;;
78787;SDS011;68131;52.508;5.502;2023-06-26T05:45:53;0.73;;;0.50;;
78787;SDS011;68131;52.508;5.502;2023-06-26T05:48:22;1.63;;;0.88;;
78787;SDS011;68131;52.508;5.502;2023-06-26T05:50:54;2.80;;;0.82;;
78787;SDS011;68131;52.508;5.502;2023-06-26T05:53:27;3.00;;;0.90;;
78787;SDS011;68131;52.508;5.502;2023-06-26T05:55:57;0.95;;;0.70;;
78787;SDS011;68131;52.508;5.502;2023-06-26T05:58:30;1.38;;;0.70;;
78787;SDS011;68131;52.508;5.502;2023-06-26T06:01:05;1.45;;;1.00;;
78787;SDS011;68131;52.508;5.502;2023-06-26T06:03:39;1.88;;;0.95;;
78787;SDS011;68131;52.508;5.502;2023-06-26T06:06:08;1.05;;;0.88;;
78787;SDS011;68131;52.508;5.502;2023-06-26T06:08:37;0.88;;;0.70;;
78787;SDS011;68131;52.508;5.502;2023-06-26T06:11:07;1.50;;;0.80;;
78787;SDS011;68131;52.508;5.502;2023-06-26T06:13:36;1.40;;;0.90;;
78787;SDS011;68131;52.508;5.502;2023-06-26T06:16:07;1.58;;;0.90;;
78787;SDS011;68131;52.508;5.502;2023-06-26T06:18:37;2.55;;;0.77;;
78787;SDS011;68131;52.508;5.502;2023-06-26T06:21:09;1.15;;;0.80;;
78787;SDS011;68131;52.508;5.502;2023-06-26T06:23:38;2.75;;;0.70;;
78787;SDS011;68131;52.508;5.502;2023-06-26T06:26:07;2.05;;;0.90;;
78787;SDS011;68131;52.508;5.502;2023-06-26T06:28:36;1.67;;;0.98;;
78787;SDS011;68131;52.508;5.502;2023-06-26T06:31:09;3.60;;;1.15;;
78787;SDS011;68131;52.508;5.502;2023-06-26T06:33:41;0.88;;;0.68;;
78787;SDS011;68131;52.508;5.502;2023-06-26T06:36:10;1.25;;;0.75;;
78787;SDS011;68131;52.508;5.502;2023-06-26T06:38:42;0.95;;;0.70;;
78787;SDS011;68131;52.508;5.502;2023-06-26T06:41:11;2.35;;;0.93;;
78787;SDS011;68131;52.508;5.502;2023-06-26T06:43:42;2.47;;;0.70;;
78787;SDS011;68131;52.508;5.502;2023-06-26T06:46:14;1.95;;;0.82;;
78787;SDS011;68131;52.508;5.502;2023-06-26T06:48:43;3.20;;;1.02;;
78787;SDS011;68131;52.508;5.502;2023-06-26T06:51:15;4.15;;;1.23;;
78787;SDS011;68131;52.508;5.502;2023-06-26T06:53:44;0.90;;;0.68;;
78787;SDS011;68131;52.508;5.502;2023-06-26T06:56:13;1.25;;;0.55;;
78787;SDS011;68131;52.508;5.502;2023-06-26T06:58:43;0.77;;;0.65;;
78787;SDS011;68131;52.508;5.502;2023-06-26T07:01:15;1.20;;;0.50;;
78787;SDS011;68131;52.508;5.502;2023-06-26T07:03:44;1.33;;;0.73;;
78787;SDS011;68131;52.508;5.502;2023-06-26T07:06:13;1.13;;;0.60;;
78787;SDS011;68131;52.508;5.502;2023-06-26T07:08:42;3.13;;;0.93;;
78787;SDS011;68131;52.508;5.502;2023-06-26T07:11:12;1.63;;;0.80;;
78787;SDS011;68131;52.508;5.502;2023-06-26T07:13:41;1.98;;;0.95;;
78787;SDS011;68131;52.508;5.502;2023-06-26T07:16:16;0.93;;;0.57;;
78787;SDS011;68131;52.508;5.502;2023-06-26T07:18:45;1.92;;;1.30;;
78787;SDS011;68131;52.508;5.502;2023-06-26T07:21:15;1.30;;;0.70;;
78787;SDS011;68131;52.508;5.502;2023-06-26T07:23:45;1.85;;;0.60;;
78787;SDS011;68131;52.508;5.502;2023-06-26T07:26:14;3.08;;;0.85;;
78787;SDS011;68131;52.508;5.502;2023-06-26T07:28:44;3.38;;;1.00;;
78787;SDS011;68131;52.508;5.502;2023-06-26T07:31:18;1.40;;;0.93;;
78787;SDS011;68131;52.508;5.502;2023-06-26T07:33:47;1.35;;;1.17;;
78787;SDS011;68131;52.508;5.502;2023-06-26T07:36:16;1.33;;;1.00;;
78787;SDS011;68131;52.508;5.502;2023-06-26T07:38:45;1.35;;;0.90;;
78787;SDS011;68131;52.508;5.502;2023-06-26T07:41:15;3.50;;;0.85;;
78787;SDS011;68131;52.508;5.502;2023-06-26T07:43:44;1.77;;;1.02;;
78787;SDS011;68131;52.508;5.502;2023-06-26T07:46:13;1.35;;;0.95;;
78787;SDS011;68131;52.508;5.502;2023-06-26T07:48:45;3.42;;;0.90;;
78787;SDS011;68131;52.508;5.502;2023-06-26T07:51:17;1.45;;;0.75;;
78787;SDS011;68131;52.508;5.502;2023-06-26T07:53:46;2.33;;;1.20;;
78787;SDS011;68131;52.508;5.502;2023-06-26T07:56:15;3.20;;;0.80;;
78787;SDS011;68131;52.508;5.502;2023-06-26T07:58:44;1.45;;;1.00;;
78787;SDS011;68131;52.508;5.502;2023-06-26T08:01:13;1.63;;;1.10;;
78787;SDS011;68131;52.508;5.502;2023-06-26T08:03:46;2.63;;;0.93;;
78787;SDS011;68131;52.508;5.502;2023-06-26T08:06:16;2.88;;;0.80;;
78787;SDS011;68131;52.508;5.502;2023-06-26T08:08:45;2.00;;;1.02;;
78787;SDS011;68131;52.508;5.502;2023-06-26T08:11:14;1.80;;;1.00;;
78787;SDS011;68131;52.508;5.502;2023-06-26T08:13:43;1.85;;;0.90;;
78787;SDS011;68131;52.508;5.502;2023-06-26T08:16:13;1.80;;;0.95;;
78787;SDS011;68131;52.508;5.502;2023-06-26T08:18:42;1.77;;;0.77;;
78787;SDS011;68131;52.508;5.502;2023-06-26T08:21:14;2.55;;;0.98;;
78787;SDS011;68131;52.508;5.502;2023-06-26T08:23:43;1.55;;;0.90;;
78787;SDS011;68131;52.508;5.502;2023-06-26T08:26:13;7.22;;;1.38;;
78787;SDS011;68131;52.508;5.502;2023-06-26T08:28:42;4.53;;;1.30;;
78787;SDS011;68131;52.508;5.502;2023-06-26T08:31:11;2.15;;;1.10;;
78787;SDS011;68131;52.508;5.502;2023-06-26T08:33:41;8.50;;;1.38;;
78787;SDS011;68131;52.508;5.502;2023-06-26T08:36:10;1.90;;;1.10;;
78787;SDS011;68131;52.508;5.502;2023-06-26T08:38:44;1.42;;;1.10;;
78787;SDS011;68131;52.508;5.502;2023-06-26T08:41:14;4.00;;;1.13;;
78787;SDS011;68131;52.508;5.502;2023-06-26T08:43:44;1.88;;;1.08;;
78787;SDS011;68131;52.508;5.502;2023-06-26T08:46:13;1.85;;;0.88;;
78787;SDS011;68131;52.508;5.502;2023-06-26T08:48:44;2.83;;;0.90;;
78787;SDS011;68131;52.508;5.502;2023-06-26T08:51:19;2.63;;;1.10;;
78787;SDS011;68131;52.508;5.502;2023-06-26T08:53:55;4.50;;;1.20;;
78787;SDS011;68131;52.508;5.502;2023-06-26T08:56:27;1.70;;;0.90;;
78787;SDS011;68131;52.508;5.502;2023-06-26T08:59:00;5.15;;;1.40;;
78787;SDS011;68131;52.508;5.502;2023-06-26T09:01:29;1.58;;;1.02;;
78787;SDS011;68131;52.508;5.502;2023-06-26T09:03:59;1.52;;;0.90;;
78787;SDS011;68131;52.508;5.502;2023-06-26T09:06:31;1.33;;;0.90;;
78787;SDS011;68131;52.508;5.502;2023-06-26T09:09:01;3.22;;;1.02;;
78787;SDS011;68131;52.508;5.502;2023-06-26T09:11:31;1.10;;;0.75;;
78787;SDS011;68131;52.508;5.502;2023-06-26T09:14:00;3.80;;;1.05;;
78787;SDS011;68131;52.508;5.502;2023-06-26T09:16:31;2.05;;;0.63;;
78787;SDS011;68131;52.508;5.502;2023-06-26T09:19:00;1.00;;;0.80;;
78787;SDS011;68131;52.508;5.502;2023-06-26T09:21:32;2.92;;;0.90;;
78787;SDS011;68131;52.508;5.502;2023-06-26T09:24:01;1.85;;;0.88;;
78787;SDS011;68131;52.508;5.502;2023-06-26T09:26:31;2.28;;;0.80;;
78787;SDS011;68131;52.508;5.502;2023-06-26T09:29:01;2.00;;;0.73;;
78787;SDS011;68131;52.508;5.502;2023-06-26T09:31:31;2.10;;;1.00;;
78787;SDS011;68131;52.508;5.502;2023-06-26T09:34:02;2.22;;;1.00;;
78787;SDS011;68131;52.508;5.502;2023-06-26T09:36:35;2.67;;;1.10;;
78787;SDS011;68131;52.508;5.502;2023-06-26T09:39:05;1.88;;;0.70;;
78787;SDS011;68131;52.508;5.502;2023-06-26T09:41:36;1.00;;;0.80;;
78787;SDS011;68131;52.508;5.502;2023-06-26T09:44:06;2.47;;;0.90;;
78787;SDS011;68131;52.508;5.502;2023-06-26T09:46:38;2.25;;;0.80;;
78787;SDS011;68131;52.508;5.502;2023-06-26T09:49:09;1.00;;;0.85;;
78787;SDS011;68131;52.508;5.502;2023-06-26T09:51:42;1.92;;;0.93;;
78787;SDS011;68131;52.508;5.502;2023-06-26T09:54:11;1.60;;;0.98;;
78787;SDS011;68131;52.508;5.502;2023-06-26T09:56:40;2.05;;;1.25;;
78787;SDS011;68131;52.508;5.502;2023-06-26T09:59:09;1.95;;;1.30;;
78787;SDS011;68131;52.508;5.502;2023-06-26T10:01:39;2.22;;;1.00;;
78787;SDS011;68131;52.508;5.502;2023-06-26T10:04:09;2.55;;;0.60;;
78787;SDS011;68131;52.508;5.502;2023-06-26T10:06:45;3.15;;;0.80;;
78787;SDS011;68131;52.508;5.502;2023-06-26T10:09:16;1.25;;;0.70;;
78787;SDS011;68131;52.508;5.502;2023-06-26T10:11:46;0.93;;;0.50;;
78787;SDS011;68131;52.508;5.502;2023-06-26T10:14:20;1.38;;;0.52;;
78787;SDS011;68131;52.508;5.502;2023-06-26T10:16:50;1.08;;;0.52;;
78787;SDS011;68131;52.508;5.502;2023-06-26T10:19:20;1.65;;;0.45;;
78787;SDS011;68131;52.508;5.502;2023-06-26T10:21:55;1.33;;;0.50;;
78787;SDS011;68131;52.508;5.502;2023-06-26T10:24:27;0.90;;;0.60;;
78787;SDS011;68131;52.508;5.502;2023-06-26T10:27:01;0.75;;;0.38;;
78787;SDS011;68131;52.508;5.502;2023-06-26T10:29:33;0.98;;;0.38;;
78787;SDS011;68131;52.508;5.502;2023-06-26T10:32:05;1.23;;;0.30;;
78787;SDS011;68131;52.508;5.502;2023-06-26T10:34:35;0.70;;;0.35;;
78787;SDS011;68131;52.508;5.502;2023-06-26T10:37:07;0.50;;;0.40;;
78787;SDS011;68131;52.508;5.502;2023-06-26T10:39:46;1.13;;;0.35;;
78787;SDS011;68131;52.508;5.502;2023-06-26T10:42:17;2.08;;;0.43;;
78787;SDS011;68131;52.508;5.502;2023-06-26T10:44:47;1.20;;;0.50;;
78787;SDS011;68131;52.508;5.502;2023-06-26T10:47:28;0.95;;;0.30;;
78787;SDS011;68131;52.508;5.502;2023-06-26T10:53:14;0.50;;;0.32;;
78787;SDS011;68131;52.508;5.502;2023-06-26T10:55:48;0.55;;;0.35;;
78787;SDS011;68131;52.508;5.502;2023-06-26T10:58:40;2.30;;;0.35;;
78787;SDS011;68131;52.508;5.502;2023-06-26T11:01:21;0.88;;;0.80;;
78787;SDS011;68131;52.508;5.502;2023-06-26T11:04:03;1.95;;;0.60;;
78787;SDS011;68131;52.508;5.502;2023-06-26T11:06:35;2.45;;;0.60;;
78787;SDS011;68131;52.508;5.502;2023-06-26T11:11:55;2.83;;;0.80;;
78787;SDS011;68131;52.508;5.502;2023-06-26T11:14:31;1.98;;;0.22;;
78787;SDS011;68131;52.508;5.502;2023-06-26T11:17:04;1.20;;;0.63;;
78787;SDS011;68131;52.508;5.502;2023-06-26T11:19:34;0.68;;;0.38;;
78787;SDS011;68131;52.508;5.502;2023-06-26T11:22:03;1.33;;;0.32;;
78787;SDS011;68131;52.508;5.502;2023-06-26T11:24:41;0.40;;;0.40;;
78787;SDS011;68131;52.508;5.502;2023-06-26T11:27:14;2.60;;;0.47;;
78787;SDS011;68131;52.508;5.502;2023-06-26T11:29:47;0.80;;;0.43;;
78787;SDS011;68131;52.508;5.502;2023-06-26T11:32:17;5.00;;;0.70;;
78787;SDS011;68131;52.508;5.502;2023-06-26T11:34:47;2.60;;;0.65;;
78787;SDS011;68131;52.508;5.502;2023-06-26T11:37:21;1.00;;;0.30;;
78787;SDS011;68131;52.508;5.502;2023-06-26T11:39:53;1.90;;;0.43;;
78787;SDS011;68131;52.508;5.502;2023-06-26T11:42:25;3.25;;;0.50;;
78787;SDS011;68131;52.508;5.502;2023-06-26T11:44:54;0.75;;;0.30;;
78787;SDS011;68131;52.508;5.502;2023-06-26T11:47:23;2.15;;;0.65;;
78787;SDS011;68131;52.508;5.502;2023-06-26T11:49:53;1.33;;;0.38;;
78787;SDS011;68131;52.508;5.502;2023-06-26T11:52:26;1.38;;;0.40;;
78787;SDS011;68131;52.508;5.502;2023-06-26T11:55:00;0.65;;;0.50;;
78787;SDS011;68131;52.508;5.502;2023-06-26T11:57:30;1.08;;;0.50;;
78787;SDS011;68131;52.508;5.502;2023-06-26T12:00:09;0.65;;;0.40;;
78787;SDS011;68131;52.508;5.502;2023-06-26T12:02:41;1.50;;;0.50;;
78787;SDS011;68131;52.508;5.502;2023-06-26T12:05:14;2.78;;;0.55;;
78787;SDS011;68131;52.508;5.502;2023-06-26T12:07:44;1.75;;;0.75;;
78787;SDS011;68131;52.508;5.502;2023-06-26T12:10:18;1.00;;;0.50;;
78787;SDS011;68131;52.508;5.502;2023-06-26T12:12:49;1.73;;;0.50;;
78787;SDS011;68131;52.508;5.502;2023-06-26T12:15:19;0.50;;;0.40;;
78787;SDS011;68131;52.508;5.502;2023-06-26T12:17:48;1.25;;;0.38;;
78787;SDS011;68131;52.508;5.502;2023-06-26T12:20:18;1.85;;;0.43;;
78787;SDS011;68131;52.508;5.502;2023-06-26T12:22:52;1.02;;;0.40;;
78787;SDS011;68131;52.508;5.502;2023-06-26T12:25:24;1.90;;;0.60;;
78787;SDS011;68131;52.508;5.502;2023-06-26T12:27:53;0.57;;;0.30;;
78787;SDS011;68131;52.508;5.502;2023-06-26T12:30:23;0.57;;;0.35;;
78787;SDS011;68131;52.508;5.502;2023-06-26T12:32:52;1.52;;;0.38;;
78787;SDS011;68131;52.508;5.502;2023-06-26T12:35:21;0.68;;;0.40;;
78787;SDS011;68131;52.508;5.502;2023-06-26T12:37:50;1.67;;;0.60;;
78787;SDS011;68131;52.508;5.502;2023-06-26T12:40:24;0.95;;;0.43;;
78787;SDS011;68131;52.508;5.502;2023-06-26T12:42:54;0.85;;;0.50;;
78787;SDS011;68131;52.508;5.502;2023-06-26T12:45:24;0.95;;;0.40;;
78787;SDS011;68131;52.508;5.502;2023-06-26T12:48:06;0.88;;;0.30;;
78787;SDS011;68131;52.508;5.502;2023-06-26T12:50:37;2.63;;;0.73;;
78787;SDS011;68131;52.508;5.502;2023-06-26T12:53:11;1.77;;;0.60;;
78787;SDS011;68131;52.508;5.502;2023-06-26T12:55:43;1.35;;;0.50;;
78787;SDS011;68131;52.508;5.502;2023-06-26T12:58:12;1.23;;;0.47;;
78787;SDS011;68131;52.508;5.502;2023-06-26T13:00:42;1.65;;;0.50;;
78787;SDS011;68131;52.508;5.502;2023-06-26T13:03:16;1.77;;;0.68;;
78787;SDS011;68131;52.508;5.502;2023-06-26T13:05:48;0.60;;;0.38;;
78787;SDS011;68131;52.508;5.502;2023-06-26T13:08:18;0.40;;;0.40;;
78787;SDS011;68131;52.508;5.502;2023-06-26T13:10:49;1.85;;;0.35;;
78787;SDS011;68131;52.508;5.502;2023-06-26T13:13:19;1.63;;;0.35;;
78787;SDS011;68131;52.508;5.502;2023-06-26T13:15:50;1.42;;;0.60;;
78787;SDS011;68131;52.508;5.502;2023-06-26T13:18:19;1.67;;;0.35;;
78787;SDS011;68131;52.508;5.502;2023-06-26T13:20:48;0.82;;;0.40;;
78787;SDS011;68131;52.508;5.502;2023-06-26T13:23:17;2.80;;;0.55;;
78787;SDS011;68131;52.508;5.502;2023-06-26T13:25:49;0.50;;;0.20;;
78787;SDS011;68131;52.508;5.502;2023-06-26T13:28:21;1.50;;;0.30;;
78787;SDS011;68131;52.508;5.502;2023-06-26T13:30:51;0.73;;;0.30;;
78787;SDS011;68131;52.508;5.502;2023-06-26T13:33:20;0.88;;;0.40;;
78787;SDS011;68131;52.508;5.502;2023-06-26T13:35:56;0.60;;;0.40;;
78787;SDS011;68131;52.508;5.502;2023-06-26T13:38:26;1.08;;;0.63;;
78787;SDS011;68131;52.508;5.502;2023-06-26T13:40:57;0.85;;;0.30;;
78787;SDS011;68131;52.508;5.502;2023-06-26T13:43:27;0.77;;;0.28;;
78787;SDS011;68131;52.508;5.502;2023-06-26T13:45:57;1.48;;;0.50;;
78787;SDS011;68131;52.508;5.502;2023-06-26T13:48:28;1.05;;;0.22;;
78787;SDS011;68131;52.508;5.502;2023-06-26T13:50:58;0.63;;;0.30;;
78787;SDS011;68131;52.508;5.502;2023-06-26T13:53:28;2.50;;;0.43;;
78787;SDS011;68131;52.508;5.502;2023-06-26T13:55:59;1.25;;;0.22;;
78787;SDS011;68131;52.508;5.502;2023-06-26T13:58:29;1.35;;;0.20;;
78787;SDS011;68131;52.508;5.502;2023-06-26T14:00:59;0.63;;;0.35;;
78787;SDS011;68131;52.508;5.502;2023-06-26T14:03:28;0.73;;;0.40;;
78787;SDS011;68131;52.508;5.502;2023-06-26T14:06:02;0.35;;;0.30;;
78787;SDS011;68131;52.508;5.502;2023-06-26T14:08:31;2.03;;;0.80;;
78787;SDS011;68131;52.508;5.502;2023-06-26T14:11:03;1.48;;;1.27;;
78787;SDS011;68131;52.508;5.502;2023-06-26T14:13:32;0.95;;;0.40;;
78787;SDS011;68131;52.508;5.502;2023-06-26T14:16:04;0.90;;;0.40;;
78787;SDS011;68131;52.508;5.502;2023-06-26T14:18:33;1.20;;;0.40;;
78787;SDS011;68131;52.508;5.502;2023-06-26T14:21:03;0.73;;;0.43;;
78787;SDS011;68131;52.508;5.502;2023-06-26T14:23:32;2.10;;;0.40;;
78787;SDS011;68131;52.508;5.502;2023-06-26T14:26:04;0.93;;;0.50;;
78787;SDS011;68131;52.508;5.502;2023-06-26T14:28:33;0.82;;;0.73;;
78787;SDS011;68131;52.508;5.502;2023-06-26T14:31:02;1.75;;;0.40;;
78787;SDS011;68131;52.508;5.502;2023-06-26T14:36:05;0.98;;;0.50;;
78787;SDS011;68131;52.508;5.502;2023-06-26T14:38:34;1.13;;;0.43;;
78787;SDS011;68131;52.508;5.502;2023-06-26T14:41:06;1.02;;;0.22;;
78787;SDS011;68131;52.508;5.502;2023-06-26T14:43:40;1.45;;;0.40;;
78787;SDS011;68131;52.508;5.502;2023-06-26T14:46:11;0.90;;;0.47;;
78787;SDS011;68131;52.508;5.502;2023-06-26T14:48:40;4.05;;;0.30;;
78787;SDS011;68131;52.508;5.502;2023-06-26T14:51:10;1.35;;;0.38;;
78787;SDS011;68131;52.508;5.502;2023-06-26T14:53:39;1.10;;;0.40;;
78787;SDS011;68131;52.508;5.502;2023-06-26T14:56:11;1.33;;;0.47;;
78787;SDS011;68131;52.508;5.502;2023-06-26T14:58:40;0.25;;;0.25;;
78787;SDS011;68131;52.508;5.502;2023-06-26T15:01:12;1.95;;;0.43;;
78787;SDS011;68131;52.508;5.502;2023-06-26T15:03:42;1.95;;;0.50;;
78787;SDS011;68131;52.508;5.502;2023-06-26T15:06:11;2.08;;;0.35;;
78787;SDS011;68131;52.508;5.502;2023-06-26T15:08:40;0.60;;;0.30;;
78787;SDS011;68131;52.508;5.502;2023-06-26T15:11:12;0.45;;;0.13;;
78787;SDS011;68131;52.508;5.502;2023-06-26T15:13:41;2.03;;;1.25;;
78787;SDS011;68131;52.508;5.502;2023-06-26T15:16:11;0.93;;;0.25;;
78787;SDS011;68131;52.508;5.502;2023-06-26T15:18:40;0.60;;;0.40;;
78787;SDS011;68131;52.508;5.502;2023-06-26T15:21:09;0.28;;;0.20;;
78787;SDS011;68131;52.508;5.502;2023-06-26T15:23:39;0.77;;;0.57;;